sensor_id;sensor_type;location;lat;lon;timestamp;temperature;humidity
18305;DHT22;9278;52.156;21.048;2023-04-03T00:01:20;2.20;99.90
18305;DHT22;9278;52.156;21.048;2023-04-03T00:03:49;2.10;99.90
18305;DHT22;9278;52.156;21.048;2023-04-03T00:06:18;2.10;99.90
18305;DHT22;9278;52.156;21.048;2023-04-03T00:11:16;1.90;99.90
18305;DHT22;9278;52.156;21.048;2023-04-03T00:13:45;1.80;99.90
18305;DHT22;9278;52.156;21.048;2023-04-03T00:16:13;1.90;99.90
18305;DHT22;9278;52.156;21.048;2023-04-03T00:18:42;1.70;99.90
18305;DHT22;9278;52.156;21.048;2023-04-03T00:21:13;1.80;99.90
18305;DHT22;9278;52.156;21.048;2023-04-03T00:23:41;1.80;99.90
18305;DHT22;9278;52.156;21.048;2023-04-03T00:26:10;1.70;99.90
18305;DHT22;9278;52.156;21.048;2023-04-03T00:28:39;1.70;99.90
18305;DHT22;9278;52.156;21.048;2023-04-03T00:31:09;1.60;99.90
18305;DHT22;9278;52.156;21.048;2023-04-03T00:33:37;1.90;99.90
18305;DHT22;9278;52.156;21.048;2023-04-03T00:36:07;1.60;99.90
18305;DHT22;9278;52.156;21.048;2023-04-03T00:38:36;1.50;99.90
18305;DHT22;9278;52.156;21.048;2023-04-03T00:41:05;1.60;99.90
18305;DHT22;9278;52.156;21.048;2023-04-03T00:43:33;1.50;99.90
18305;DHT22;9278;52.156;21.048;2023-04-03T00:46:02;1.30;99.90
18305;DHT22;9278;52.156;21.048;2023-04-03T00:48:33;1.40;99.90
18305;DHT22;9278;52.156;21.048;2023-04-03T00:51:04;1.40;99.90
18305;DHT22;9278;52.156;21.048;2023-04-03T00:53:37;1.40;99.90
18305;DHT22;9278;52.156;21.048;2023-04-03T00:56:09;1.20;99.90
18305;DHT22;9278;52.156;21.048;2023-04-03T00:58:41;1.20;99.90
18305;DHT22;9278;52.156;21.048;2023-04-03T01:01:16;1.40;99.90
18305;DHT22;9278;52.156;21.048;2023-04-03T01:03:47;1.10;99.90
18305;DHT22;9278;52.156;21.048;2023-04-03T01:06:21;1.20;99.90
18305;DHT22;9278;52.156;21.048;2023-04-03T01:08:51;1.10;99.90
18305;DHT22;9278;52.156;21.048;2023-04-03T01:11:20;1.10;99.90
18305;DHT22;9278;52.156;21.048;2023-04-03T01:13:49;1.10;99.90
18305;DHT22;9278;52.156;21.048;2023-04-03T01:16:18;1.00;99.90
18305;DHT22;9278;52.156;21.048;2023-04-03T01:18:48;1.00;99.90
18305;DHT22;9278;52.156;21.048;2023-04-03T01:21:51;0.90;99.90
18305;DHT22;9278;52.156;21.048;2023-04-03T01:24:30;1.00;99.90
18305;DHT22;9278;52.156;21.048;2023-04-03T01:27:03;0.90;99.90
18305;DHT22;9278;52.156;21.048;2023-04-03T01:32:04;0.90;99.90
18305;DHT22;9278;52.156;21.048;2023-04-03T01:34:32;0.80;99.90
18305;DHT22;9278;52.156;21.048;2023-04-03T01:37:00;2.50;99.90
18305;DHT22;9278;52.156;21.048;2023-04-03T01:39:29;0.90;99.90
18305;DHT22;9278;52.156;21.048;2023-04-03T01:41:57;0.80;99.90
18305;DHT22;9278;52.156;21.048;2023-04-03T01:44:31;0.70;99.90
18305;DHT22;9278;52.156;21.048;2023-04-03T01:46:59;0.70;99.90
18305;DHT22;9278;52.156;21.048;2023-04-03T01:49:30;0.70;99.90
18305;DHT22;9278;52.156;21.048;2023-04-03T01:51:59;0.70;99.90
18305;DHT22;9278;52.156;21.048;2023-04-03T01:54:27;0.60;99.90
18305;DHT22;9278;52.156;21.048;2023-04-03T01:56:56;0.60;99.90
18305;DHT22;9278;52.156;21.048;2023-04-03T01:59:24;0.40;99.90
18305;DHT22;9278;52.156;21.048;2023-04-03T02:01:53;0.60;99.90
18305;DHT22;9278;52.156;21.048;2023-04-03T02:04:21;0.50;99.90
18305;DHT22;9278;52.156;21.048;2023-04-03T02:06:51;0.50;99.90
18305;DHT22;9278;52.156;21.048;2023-04-03T02:09:19;0.50;99.90
18305;DHT22;9278;52.156;21.048;2023-04-03T02:11:48;0.50;99.90
18305;DHT22;9278;52.156;21.048;2023-04-03T02:14:16;0.60;99.90
18305;DHT22;9278;52.156;21.048;2023-04-03T02:19:13;0.40;99.90
18305;DHT22;9278;52.156;21.048;2023-04-03T02:21:42;0.30;99.90
18305;DHT22;9278;52.156;21.048;2023-04-03T02:24:11;0.30;99.90
18305;DHT22;9278;52.156;21.048;2023-04-03T02:26:40;0.20;99.90
18305;DHT22;9278;52.156;21.048;2023-04-03T02:29:08;0.40;99.90
18305;DHT22;9278;52.156;21.048;2023-04-03T02:31:36;-0.40;99.90
18305;DHT22;9278;52.156;21.048;2023-04-03T02:34:05;0.20;99.90
18305;DHT22;9278;52.156;21.048;2023-04-03T02:36:35;0.10;99.90
18305;DHT22;9278;52.156;21.048;2023-04-03T02:39:07;0.10;99.90
18305;DHT22;9278;52.156;21.048;2023-04-03T02:41:36;0.20;99.90
18305;DHT22;9278;52.156;21.048;2023-04-03T02:44:11;0.10;99.90
18305;DHT22;9278;52.156;21.048;2023-04-03T02:46:39;0.00;99.90
18305;DHT22;9278;52.156;21.048;2023-04-03T02:49:08;0.10;99.90
18305;DHT22;9278;52.156;21.048;2023-04-03T02:51:36;-0.10;99.90
18305;DHT22;9278;52.156;21.048;2023-04-03T02:54:05;0.20;99.90
18305;DHT22;9278;52.156;21.048;2023-04-03T02:56:37;-0.20;99.90
18305;DHT22;9278;52.156;21.048;2023-04-03T02:59:06;0.00;99.90
18305;DHT22;9278;52.156;21.048;2023-04-03T03:01:37;-0.10;99.90
18305;DHT22;9278;52.156;21.048;2023-04-03T03:06:34;-0.10;99.90
18305;DHT22;9278;52.156;21.048;2023-04-03T03:09:03;-0.10;99.90
18305;DHT22;9278;52.156;21.048;2023-04-03T03:11:32;-0.10;99.90
18305;DHT22;9278;52.156;21.048;2023-04-03T03:14:03;-0.10;99.90
18305;DHT22;9278;52.156;21.048;2023-04-03T03:16:32;-0.10;99.90
18305;DHT22;9278;52.156;21.048;2023-04-03T03:19:01;-0.30;99.90
18305;DHT22;9278;52.156;21.048;2023-04-03T03:21:29;-0.10;99.90
18305;DHT22;9278;52.156;21.048;2023-04-03T03:23:58;-0.20;99.90
18305;DHT22;9278;52.156;21.048;2023-04-03T03:26:27;-0.30;99.90
18305;DHT22;9278;52.156;21.048;2023-04-03T03:28:55;-0.20;99.90
18305;DHT22;9278;52.156;21.048;2023-04-03T03:31:25;-0.20;99.90
18305;DHT22;9278;52.156;21.048;2023-04-03T03:33:53;-0.20;99.90
18305;DHT22;9278;52.156;21.048;2023-04-03T03:38:50;-0.30;99.90
18305;DHT22;9278;52.156;21.048;2023-04-03T03:41:19;-0.30;99.90
18305;DHT22;9278;52.156;21.048;2023-04-03T03:43:48;-0.30;99.90
18305;DHT22;9278;52.156;21.048;2023-04-03T03:46:16;-0.30;99.90
18305;DHT22;9278;52.156;21.048;2023-04-03T03:48:46;-0.40;99.90
18305;DHT22;9278;52.156;21.048;2023-04-03T03:51:15;-0.40;99.90
18305;DHT22;9278;52.156;21.048;2023-04-03T03:53:44;-0.40;99.90
18305;DHT22;9278;52.156;21.048;2023-04-03T03:56:15;-0.30;99.90
18305;DHT22;9278;52.156;21.048;2023-04-03T03:58:45;-0.40;99.90
18305;DHT22;9278;52.156;21.048;2023-04-03T04:01:16;0.00;99.90
18305;DHT22;9278;52.156;21.048;2023-04-03T04:03:49;-0.50;99.90
18305;DHT22;9278;52.156;21.048;2023-04-03T04:06:21;0.90;99.90
18305;DHT22;9278;52.156;21.048;2023-04-03T04:11:21;-0.60;99.90
18305;DHT22;9278;52.156;21.048;2023-04-03T04:16:24;-0.50;99.90
18305;DHT22;9278;52.156;21.048;2023-04-03T04:18:55;-0.60;99.90
18305;DHT22;9278;52.156;21.048;2023-04-03T04:21:24;-0.80;99.90
18305;DHT22;9278;52.156;21.048;2023-04-03T04:23:53;-0.60;99.90
18305;DHT22;9278;52.156;21.048;2023-04-03T04:26:23;-0.60;99.90
18305;DHT22;9278;52.156;21.048;2023-04-03T04:28:52;-0.60;99.90
18305;DHT22;9278;52.156;21.048;2023-04-03T04:31:20;-0.50;99.90
18305;DHT22;9278;52.156;21.048;2023-04-03T04:36:19;-0.50;99.90
18305;DHT22;9278;52.156;21.048;2023-04-03T04:38:48;-0.50;99.90
18305;DHT22;9278;52.156;21.048;2023-04-03T04:41:22;-0.60;99.90
18305;DHT22;9278;52.156;21.048;2023-04-03T04:43:52;-0.50;99.90
18305;DHT22;9278;52.156;21.048;2023-04-03T04:46:21;-0.60;99.90
18305;DHT22;9278;52.156;21.048;2023-04-03T04:48:54;-0.60;99.90
18305;DHT22;9278;52.156;21.048;2023-04-03T04:51:25;-0.50;99.90
18305;DHT22;9278;52.156;21.048;2023-04-03T04:53:59;-0.60;99.90
18305;DHT22;9278;52.156;21.048;2023-04-03T04:56:28;-0.60;99.90
18305;DHT22;9278;52.156;21.048;2023-04-03T04:58:58;-0.30;99.90
18305;DHT22;9278;52.156;21.048;2023-04-03T05:01:26;-0.70;99.90
18305;DHT22;9278;52.156;21.048;2023-04-03T05:04:09;-0.60;99.90
18305;DHT22;9278;52.156;21.048;2023-04-03T05:06:41;-0.50;99.90
18305;DHT22;9278;52.156;21.048;2023-04-03T05:09:14;-0.80;99.90
18305;DHT22;9278;52.156;21.048;2023-04-03T05:11:44;-0.60;99.90
18305;DHT22;9278;52.156;21.048;2023-04-03T05:14:14;-0.60;99.90
18305;DHT22;9278;52.156;21.048;2023-04-03T05:16:43;-0.60;99.90
18305;DHT22;9278;52.156;21.048;2023-04-03T05:19:12;-0.60;99.90
18305;DHT22;9278;52.156;21.048;2023-04-03T05:21:43;-0.50;99.90
18305;DHT22;9278;52.156;21.048;2023-04-03T05:24:16;-0.50;99.90
18305;DHT22;9278;52.156;21.048;2023-04-03T05:26:44;-0.50;99.90
18305;DHT22;9278;52.156;21.048;2023-04-03T05:29:14;-0.40;99.90
18305;DHT22;9278;52.156;21.048;2023-04-03T05:34:12;-0.40;99.90
18305;DHT22;9278;52.156;21.048;2023-04-03T05:36:43;-0.20;99.90
18305;DHT22;9278;52.156;21.048;2023-04-03T05:39:14;-0.20;99.90
18305;DHT22;9278;52.156;21.048;2023-04-03T05:41:45;-0.30;99.90
18305;DHT22;9278;52.156;21.048;2023-04-03T05:44:13;-0.30;99.90
18305;DHT22;9278;52.156;21.048;2023-04-03T05:46:43;-0.10;99.90
18305;DHT22;9278;52.156;21.048;2023-04-03T05:49:11;-0.20;99.90
18305;DHT22;9278;52.156;21.048;2023-04-03T05:51:40;0.30;99.90
18305;DHT22;9278;52.156;21.048;2023-04-03T05:54:29;-0.10;99.90
18305;DHT22;9278;52.156;21.048;2023-04-03T05:57:11;0.00;99.90
18305;DHT22;9278;52.156;21.048;2023-04-03T06:02:11;0.20;99.90
18305;DHT22;9278;52.156;21.048;2023-04-03T06:04:39;0.50;99.90
18305;DHT22;9278;52.156;21.048;2023-04-03T06:07:11;0.20;99.90
18305;DHT22;9278;52.156;21.048;2023-04-03T06:09:42;0.10;99.90
18305;DHT22;9278;52.156;21.048;2023-04-03T06:14:39;0.30;99.90
18305;DHT22;9278;52.156;21.048;2023-04-03T06:17:08;0.50;99.90
18305;DHT22;9278;52.156;21.048;2023-04-03T06:19:36;0.40;99.90
18305;DHT22;9278;52.156;21.048;2023-04-03T06:22:04;0.50;99.90
18305;DHT22;9278;52.156;21.048;2023-04-03T06:27:03;0.40;99.90
18305;DHT22;9278;52.156;21.048;2023-04-03T06:29:32;0.30;99.90
18305;DHT22;9278;52.156;21.048;2023-04-03T06:32:00;0.40;99.90
18305;DHT22;9278;52.156;21.048;2023-04-03T06:34:28;0.20;99.90
18305;DHT22;9278;52.156;21.048;2023-04-03T06:36:58;0.60;99.90
18305;DHT22;9278;52.156;21.048;2023-04-03T06:41:56;0.70;99.90
18305;DHT22;9278;52.156;21.048;2023-04-03T06:44:36;0.70;99.90
18305;DHT22;9278;52.156;21.048;2023-04-03T06:47:04;0.60;99.90
18305;DHT22;9278;52.156;21.048;2023-04-03T06:49:32;0.80;99.90
18305;DHT22;9278;52.156;21.048;2023-04-03T06:52:01;0.80;99.90
18305;DHT22;9278;52.156;21.048;2023-04-03T06:54:29;0.60;99.90
18305;DHT22;9278;52.156;21.048;2023-04-03T06:56:57;0.50;99.90
18305;DHT22;9278;52.156;21.048;2023-04-03T07:01:55;0.60;99.90
18305;DHT22;9278;52.156;21.048;2023-04-03T07:04:25;0.80;99.90
18305;DHT22;9278;52.156;21.048;2023-04-03T07:06:54;0.70;99.90
18305;DHT22;9278;52.156;21.048;2023-04-03T07:09:22;0.70;99.90
18305;DHT22;9278;52.156;21.048;2023-04-03T07:11:51;1.20;99.90
18305;DHT22;9278;52.156;21.048;2023-04-03T07:14:19;1.00;99.90
18305;DHT22;9278;52.156;21.048;2023-04-03T07:16:48;0.90;99.90
18305;DHT22;9278;52.156;21.048;2023-04-03T07:19:17;0.80;99.90
18305;DHT22;9278;52.156;21.048;2023-04-03T07:21:46;1.00;99.90
18305;DHT22;9278;52.156;21.048;2023-04-03T07:24:14;0.90;99.90
18305;DHT22;9278;52.156;21.048;2023-04-03T07:29:12;1.20;99.90
18305;DHT22;9278;52.156;21.048;2023-04-03T07:31:40;1.30;99.90
18305;DHT22;9278;52.156;21.048;2023-04-03T07:34:09;1.20;99.90
18305;DHT22;9278;52.156;21.048;2023-04-03T07:36:39;1.20;99.90
18305;DHT22;9278;52.156;21.048;2023-04-03T07:39:07;1.20;99.90
18305;DHT22;9278;52.156;21.048;2023-04-03T07:41:35;1.40;99.90
18305;DHT22;9278;52.156;21.048;2023-04-03T07:44:05;1.40;99.90
18305;DHT22;9278;52.156;21.048;2023-04-03T07:46:36;1.70;99.90
18305;DHT22;9278;52.156;21.048;2023-04-03T07:49:05;1.70;99.90
18305;DHT22;9278;52.156;21.048;2023-04-03T07:51:33;1.50;99.90
18305;DHT22;9278;52.156;21.048;2023-04-03T07:54:03;1.50;99.90
18305;DHT22;9278;52.156;21.048;2023-04-03T07:56:31;1.80;99.90
18305;DHT22;9278;52.156;21.048;2023-04-03T07:59:00;1.70;99.90
18305;DHT22;9278;52.156;21.048;2023-04-03T08:03:59;1.80;99.90
18305;DHT22;9278;52.156;21.048;2023-04-03T08:09:13;2.30;99.90
18305;DHT22;9278;52.156;21.048;2023-04-03T08:11:42;2.50;99.90
18305;DHT22;9278;52.156;21.048;2023-04-03T08:14:11;2.30;99.90
18305;DHT22;9278;52.156;21.048;2023-04-03T08:16:44;2.20;99.90
18305;DHT22;9278;52.156;21.048;2023-04-03T08:19:13;2.40;99.90
18305;DHT22;9278;52.156;21.048;2023-04-03T08:21:52;2.20;99.90
18305;DHT22;9278;52.156;21.048;2023-04-03T08:24:22;2.30;99.90
18305;DHT22;9278;52.156;21.048;2023-04-03T08:26:50;2.60;99.90
18305;DHT22;9278;52.156;21.048;2023-04-03T08:29:18;2.60;99.90
18305;DHT22;9278;52.156;21.048;2023-04-03T08:31:48;2.80;99.90
18305;DHT22;9278;52.156;21.048;2023-04-03T08:34:17;2.80;99.90
18305;DHT22;9278;52.156;21.048;2023-04-03T08:36:46;2.90;99.90
18305;DHT22;9278;52.156;21.048;2023-04-03T08:39:14;3.10;99.90
18305;DHT22;9278;52.156;21.048;2023-04-03T08:41:45;3.10;99.90
18305;DHT22;9278;52.156;21.048;2023-04-03T08:44:20;3.30;99.90
18305;DHT22;9278;52.156;21.048;2023-04-03T08:47:02;3.50;99.90
18305;DHT22;9278;52.156;21.048;2023-04-03T08:49:35;4.00;99.90
18305;DHT22;9278;52.156;21.048;2023-04-03T08:52:11;4.10;99.90
18305;DHT22;9278;52.156;21.048;2023-04-03T08:54:49;4.10;99.90
18305;DHT22;9278;52.156;21.048;2023-04-03T08:57:26;3.80;99.90
18305;DHT22;9278;52.156;21.048;2023-04-03T08:59:58;3.30;99.90
18305;DHT22;9278;52.156;21.048;2023-04-03T09:02:31;3.00;99.90
18305;DHT22;9278;52.156;21.048;2023-04-03T09:05:02;3.80;99.90
18305;DHT22;9278;52.156;21.048;2023-04-03T09:07:35;3.70;99.90
18305;DHT22;9278;52.156;21.048;2023-04-03T09:10:06;3.80;99.90
18305;DHT22;9278;52.156;21.048;2023-04-03T09:12:38;4.10;99.90
18305;DHT22;9278;52.156;21.048;2023-04-03T09:15:15;4.50;99.90
18305;DHT22;9278;52.156;21.048;2023-04-03T09:18:03;4.70;99.90
18305;DHT22;9278;52.156;21.048;2023-04-03T09:20:39;4.20;99.90
18305;DHT22;9278;52.156;21.048;2023-04-03T09:23:20;4.10;99.90
18305;DHT22;9278;52.156;21.048;2023-04-03T09:25:51;3.80;99.90
18305;DHT22;9278;52.156;21.048;2023-04-03T09:28:23;3.90;99.90
18305;DHT22;9278;52.156;21.048;2023-04-03T09:30:52;3.90;99.90
18305;DHT22;9278;52.156;21.048;2023-04-03T09:33:21;3.90;99.90
18305;DHT22;9278;52.156;21.048;2023-04-03T09:35:50;3.40;99.90
18305;DHT22;9278;52.156;21.048;2023-04-03T09:38:20;3.90;99.90
18305;DHT22;9278;52.156;21.048;2023-04-03T09:40:50;4.30;99.90
18305;DHT22;9278;52.156;21.048;2023-04-03T09:43:31;4.10;99.90
18305;DHT22;9278;52.156;21.048;2023-04-03T09:46:18;4.10;99.90
18305;DHT22;9278;52.156;21.048;2023-04-03T09:48:51;4.10;99.90
18305;DHT22;9278;52.156;21.048;2023-04-03T09:54:25;3.60;99.90
18305;DHT22;9278;52.156;21.048;2023-04-03T09:56:55;3.70;99.90
18305;DHT22;9278;52.156;21.048;2023-04-03T09:59:25;4.10;99.90
18305;DHT22;9278;52.156;21.048;2023-04-03T10:01:59;3.80;99.90
18305;DHT22;9278;52.156;21.048;2023-04-03T10:04:38;3.70;99.90
18305;DHT22;9278;52.156;21.048;2023-04-03T10:07:25;3.60;99.90
18305;DHT22;9278;52.156;21.048;2023-04-03T10:09:55;4.10;99.90
18305;DHT22;9278;52.156;21.048;2023-04-03T10:12:24;4.50;99.90
18305;DHT22;9278;52.156;21.048;2023-04-03T10:14:58;4.80;99.90
18305;DHT22;9278;52.156;21.048;2023-04-03T10:17:42;4.90;99.90
18305;DHT22;9278;52.156;21.048;2023-04-03T10:20:27;4.90;99.90
18305;DHT22;9278;52.156;21.048;2023-04-03T10:23:08;4.80;99.90
18305;DHT22;9278;52.156;21.048;2023-04-03T10:25:43;4.30;99.90
18305;DHT22;9278;52.156;21.048;2023-04-03T10:28:20;4.50;99.90
18305;DHT22;9278;52.156;21.048;2023-04-03T10:31:00;4.60;99.90
18305;DHT22;9278;52.156;21.048;2023-04-03T10:33:44;5.00;99.90
18305;DHT22;9278;52.156;21.048;2023-04-03T10:36:21;4.70;99.90
18305;DHT22;9278;52.156;21.048;2023-04-03T10:39:00;4.90;99.90
18305;DHT22;9278;52.156;21.048;2023-04-03T10:41:38;4.60;99.90
18305;DHT22;9278;52.156;21.048;2023-04-03T10:44:15;5.00;99.90
18305;DHT22;9278;52.156;21.048;2023-04-03T10:46:49;5.10;99.90
18305;DHT22;9278;52.156;21.048;2023-04-03T10:49:30;5.00;99.90
18305;DHT22;9278;52.156;21.048;2023-04-03T10:52:11;5.00;99.90
18305;DHT22;9278;52.156;21.048;2023-04-03T10:54:45;5.30;99.90
18305;DHT22;9278;52.156;21.048;2023-04-03T10:57:15;5.60;99.90
18305;DHT22;9278;52.156;21.048;2023-04-03T10:59:45;6.40;99.90
18305;DHT22;9278;52.156;21.048;2023-04-03T11:02:23;6.00;99.90
18305;DHT22;9278;52.156;21.048;2023-04-03T11:05:00;6.20;99.90
18305;DHT22;9278;52.156;21.048;2023-04-03T11:07:33;5.90;99.90
18305;DHT22;9278;52.156;21.048;2023-04-03T11:10:10;7.20;99.90
18305;DHT22;9278;52.156;21.048;2023-04-03T11:12:43;5.40;99.90
18305;DHT22;9278;52.156;21.048;2023-04-03T11:15:16;5.20;99.90
18305;DHT22;9278;52.156;21.048;2023-04-03T11:17:49;5.50;99.90
18305;DHT22;9278;52.156;21.048;2023-04-03T11:20:23;5.50;99.90
18305;DHT22;9278;52.156;21.048;2023-04-03T11:22:58;5.20;99.90
18305;DHT22;9278;52.156;21.048;2023-04-03T11:25:29;5.10;99.90
18305;DHT22;9278;52.156;21.048;2023-04-03T11:28:02;4.90;99.90
18305;DHT22;9278;52.156;21.048;2023-04-03T11:30:33;5.10;99.90
18305;DHT22;9278;52.156;21.048;2023-04-03T11:33:34;5.60;99.90
18305;DHT22;9278;52.156;21.048;2023-04-03T11:36:08;5.50;99.90
18305;DHT22;9278;52.156;21.048;2023-04-03T11:38:53;5.00;99.90
18305;DHT22;9278;52.156;21.048;2023-04-03T11:41:27;4.70;99.90
18305;DHT22;9278;52.156;21.048;2023-04-03T11:43:59;4.70;99.90
18305;DHT22;9278;52.156;21.048;2023-04-03T11:46:52;5.00;99.90
18305;DHT22;9278;52.156;21.048;2023-04-03T11:49:56;5.40;99.90
18305;DHT22;9278;52.156;21.048;2023-04-03T11:53:02;5.80;99.90
18305;DHT22;9278;52.156;21.048;2023-04-03T11:55:57;5.80;99.90
18305;DHT22;9278;52.156;21.048;2023-04-03T11:58:27;5.90;99.90
18305;DHT22;9278;52.156;21.048;2023-04-03T12:01:02;5.20;99.90
18305;DHT22;9278;52.156;21.048;2023-04-03T12:06:52;5.20;99.90
18305;DHT22;9278;52.156;21.048;2023-04-03T12:09:33;4.90;99.90
18305;DHT22;9278;52.156;21.048;2023-04-03T12:12:23;5.00;99.90
18305;DHT22;9278;52.156;21.048;2023-04-03T12:14:52;5.60;99.90
18305;DHT22;9278;52.156;21.048;2023-04-03T12:17:23;5.40;99.90
18305;DHT22;9278;52.156;21.048;2023-04-03T12:19:54;5.60;99.90
18305;DHT22;9278;52.156;21.048;2023-04-03T12:22:24;6.10;99.90
18305;DHT22;9278;52.156;21.048;2023-04-03T12:24:53;5.50;99.90
18305;DHT22;9278;52.156;21.048;2023-04-03T12:27:27;5.20;99.90
18305;DHT22;9278;52.156;21.048;2023-04-03T12:30:03;5.30;99.90
18305;DHT22;9278;52.156;21.048;2023-04-03T12:32:46;6.50;99.90
18305;DHT22;9278;52.156;21.048;2023-04-03T12:35:30;5.70;99.90
18305;DHT22;9278;52.156;21.048;2023-04-03T12:38:33;5.80;99.90
18305;DHT22;9278;52.156;21.048;2023-04-03T12:41:19;6.10;99.90
18305;DHT22;9278;52.156;21.048;2023-04-03T12:44:13;5.10;99.90
18305;DHT22;9278;52.156;21.048;2023-04-03T12:46:46;5.50;99.90
18305;DHT22;9278;52.156;21.048;2023-04-03T12:49:26;5.60;99.90
18305;DHT22;9278;52.156;21.048;2023-04-03T12:51:59;5.60;99.90
18305;DHT22;9278;52.156;21.048;2023-04-03T12:54:32;5.80;99.90
18305;DHT22;9278;52.156;21.048;2023-04-03T12:57:11;6.10;99.90
18305;DHT22;9278;52.156;21.048;2023-04-03T12:59:40;6.00;99.90
18305;DHT22;9278;52.156;21.048;2023-04-03T13:02:27;5.80;99.90
18305;DHT22;9278;52.156;21.048;2023-04-03T13:04:58;5.80;99.90
18305;DHT22;9278;52.156;21.048;2023-04-03T13:07:30;5.60;99.90
18305;DHT22;9278;52.156;21.048;2023-04-03T13:10:15;5.50;99.90
18305;DHT22;9278;52.156;21.048;2023-04-03T13:12:49;5.70;99.90
18305;DHT22;9278;52.156;21.048;2023-04-03T13:15:20;5.90;99.90
18305;DHT22;9278;52.156;21.048;2023-04-03T13:17:50;5.70;99.90
18305;DHT22;9278;52.156;21.048;2023-04-03T13:20:23;5.90;99.90
18305;DHT22;9278;52.156;21.048;2023-04-03T13:23:00;6.30;99.50
18305;DHT22;9278;52.156;21.048;2023-04-03T13:25:35;6.40;99.90
18305;DHT22;9278;52.156;21.048;2023-04-03T13:28:06;6.40;99.90
18305;DHT22;9278;52.156;21.048;2023-04-03T13:30:41;6.30;99.90
18305;DHT22;9278;52.156;21.048;2023-04-03T13:33:24;6.40;99.90
18305;DHT22;9278;52.156;21.048;2023-04-03T13:35:57;6.30;99.90
18305;DHT22;9278;52.156;21.048;2023-04-03T13:38:30;5.90;99.90
18305;DHT22;9278;52.156;21.048;2023-04-03T13:41:05;5.90;99.90
18305;DHT22;9278;52.156;21.048;2023-04-03T13:43:36;6.00;99.90
18305;DHT22;9278;52.156;21.048;2023-04-03T13:46:23;5.90;99.90
18305;DHT22;9278;52.156;21.048;2023-04-03T13:48:53;5.70;99.90
18305;DHT22;9278;52.156;21.048;2023-04-03T13:51:24;6.00;99.90
18305;DHT22;9278;52.156;21.048;2023-04-03T13:53:55;6.10;99.90
18305;DHT22;9278;52.156;21.048;2023-04-03T13:56:31;6.80;99.90
18305;DHT22;9278;52.156;21.048;2023-04-03T13:59:06;6.70;99.90
18305;DHT22;9278;52.156;21.048;2023-04-03T14:01:51;6.30;99.90
18305;DHT22;9278;52.156;21.048;2023-04-03T14:04:23;6.50;99.90
18305;DHT22;9278;52.156;21.048;2023-04-03T14:06:52;6.30;99.90
18305;DHT22;9278;52.156;21.048;2023-04-03T14:09:23;6.20;99.90
18305;DHT22;9278;52.156;21.048;2023-04-03T14:11:57;6.80;99.90
18305;DHT22;9278;52.156;21.048;2023-04-03T14:14:30;5.90;99.90
18305;DHT22;9278;52.156;21.048;2023-04-03T14:17:03;5.50;99.90
18305;DHT22;9278;52.156;21.048;2023-04-03T14:19:52;5.60;99.90
18305;DHT22;9278;52.156;21.048;2023-04-03T14:22:22;5.50;99.90
18305;DHT22;9278;52.156;21.048;2023-04-03T14:24:52;5.90;99.90
18305;DHT22;9278;52.156;21.048;2023-04-03T14:27:24;6.00;99.90
18305;DHT22;9278;52.156;21.048;2023-04-03T14:29:54;5.60;99.90
18305;DHT22;9278;52.156;21.048;2023-04-03T14:32:24;5.50;99.90
18305;DHT22;9278;52.156;21.048;2023-04-03T14:34:52;5.70;99.90
18305;DHT22;9278;52.156;21.048;2023-04-03T14:37:24;5.60;99.90
18305;DHT22;9278;52.156;21.048;2023-04-03T14:39:54;5.70;99.90
18305;DHT22;9278;52.156;21.048;2023-04-03T14:42:26;6.10;99.90
18305;DHT22;9278;52.156;21.048;2023-04-03T14:44:55;5.80;99.90
18305;DHT22;9278;52.156;21.048;2023-04-03T14:47:26;5.70;99.90
18305;DHT22;9278;52.156;21.048;2023-04-03T14:49:58;5.70;99.90
18305;DHT22;9278;52.156;21.048;2023-04-03T14:52:29;5.80;99.90
18305;DHT22;9278;52.156;21.048;2023-04-03T14:54:59;5.60;99.90
18305;DHT22;9278;52.156;21.048;2023-04-03T14:57:29;5.60;99.90
18305;DHT22;9278;52.156;21.048;2023-04-03T14:59:58;5.60;99.90
18305;DHT22;9278;52.156;21.048;2023-04-03T15:02:30;5.50;99.90
18305;DHT22;9278;52.156;21.048;2023-04-03T15:05:00;5.50;99.90
18305;DHT22;9278;52.156;21.048;2023-04-03T15:07:32;5.60;99.90
18305;DHT22;9278;52.156;21.048;2023-04-03T15:10:06;5.30;99.90
18305;DHT22;9278;52.156;21.048;2023-04-03T15:12:43;5.50;99.90
18305;DHT22;9278;52.156;21.048;2023-04-03T15:15:12;5.30;99.90
18305;DHT22;9278;52.156;21.048;2023-04-03T15:17:41;5.50;99.90
18305;DHT22;9278;52.156;21.048;2023-04-03T15:20:14;5.30;99.90
18305;DHT22;9278;52.156;21.048;2023-04-03T15:22:42;5.40;99.90
18305;DHT22;9278;52.156;21.048;2023-04-03T15:25:11;5.30;99.90
18305;DHT22;9278;52.156;21.048;2023-04-03T15:27:40;5.30;99.90
18305;DHT22;9278;52.156;21.048;2023-04-03T15:30:15;5.20;99.90
18305;DHT22;9278;52.156;21.048;2023-04-03T15:32:43;5.30;99.90
18305;DHT22;9278;52.156;21.048;2023-04-03T15:35:12;5.10;99.90
18305;DHT22;9278;52.156;21.048;2023-04-03T15:37:40;5.30;99.90
18305;DHT22;9278;52.156;21.048;2023-04-03T15:40:10;5.30;99.90
18305;DHT22;9278;52.156;21.048;2023-04-03T15:42:39;5.20;99.90
18305;DHT22;9278;52.156;21.048;2023-04-03T15:45:09;5.20;99.90
18305;DHT22;9278;52.156;21.048;2023-04-03T15:47:38;5.10;99.90
18305;DHT22;9278;52.156;21.048;2023-04-03T15:50:07;5.20;99.90
18305;DHT22;9278;52.156;21.048;2023-04-03T15:52:35;4.90;99.90
18305;DHT22;9278;52.156;21.048;2023-04-03T15:55:04;5.10;99.90
18305;DHT22;9278;52.156;21.048;2023-04-03T15:57:33;5.00;99.90
18305;DHT22;9278;52.156;21.048;2023-04-03T16:00:07;5.00;99.90
18305;DHT22;9278;52.156;21.048;2023-04-03T16:02:37;5.00;99.90
18305;DHT22;9278;52.156;21.048;2023-04-03T16:05:06;4.90;99.90
18305;DHT22;9278;52.156;21.048;2023-04-03T16:07:35;4.70;99.90
18305;DHT22;9278;52.156;21.048;2023-04-03T16:10:05;4.80;99.90
18305;DHT22;9278;52.156;21.048;2023-04-03T16:12:34;4.80;99.90
18305;DHT22;9278;52.156;21.048;2023-04-03T16:15:02;4.80;99.90
18305;DHT22;9278;52.156;21.048;2023-04-03T16:17:32;4.70;99.90
18305;DHT22;9278;52.156;21.048;2023-04-03T16:20:03;4.70;99.90
18305;DHT22;9278;52.156;21.048;2023-04-03T16:22:32;4.60;99.90
18305;DHT22;9278;52.156;21.048;2023-04-03T16:25:00;4.70;99.90
18305;DHT22;9278;52.156;21.048;2023-04-03T16:27:29;4.60;99.90
18305;DHT22;9278;52.156;21.048;2023-04-03T16:29:58;4.60;99.90
18305;DHT22;9278;52.156;21.048;2023-04-03T16:32:28;4.50;99.90
18305;DHT22;9278;52.156;21.048;2023-04-03T16:34:57;4.50;99.90
18305;DHT22;9278;52.156;21.048;2023-04-03T16:37:32;4.40;99.90
18305;DHT22;9278;52.156;21.048;2023-04-03T16:40:00;4.50;99.90
18305;DHT22;9278;52.156;21.048;2023-04-03T16:42:30;4.40;99.90
18305;DHT22;9278;52.156;21.048;2023-04-03T16:44:58;4.40;99.90
18305;DHT22;9278;52.156;21.048;2023-04-03T16:47:29;4.50;99.90
18305;DHT22;9278;52.156;21.048;2023-04-03T16:49:58;4.40;99.90
18305;DHT22;9278;52.156;21.048;2023-04-03T16:52:26;4.30;99.90
18305;DHT22;9278;52.156;21.048;2023-04-03T16:54:56;4.50;99.90
18305;DHT22;9278;52.156;21.048;2023-04-03T16:57:25;3.90;99.90
18305;DHT22;9278;52.156;21.048;2023-04-03T16:59:54;4.30;99.90
18305;DHT22;9278;52.156;21.048;2023-04-03T17:02:24;4.30;99.90